createdAt,value
2023-05-03T00:00:36.163Z,14.70
2023-05-03T00:05:29.315Z,14.65
2023-05-03T00:10:22.633Z,14.62
2023-05-03T00:15:15.885Z,14.59
2023-05-03T00:20:12.157Z,14.43
2023-05-03T00:25:05.943Z,14.47
2023-05-03T00:29:59.197Z,14.36
2023-05-03T00:34:55.052Z,14.16
2023-05-03T00:39:49.957Z,12.91
2023-05-03T00:44:43.535Z,13.85
2023-05-03T00:49:37.108Z,13.67
2023-05-03T00:54:33.111Z,13.75
2023-05-03T00:59:27.984Z,13.52
2023-05-03T01:04:21.918Z,13.44
2023-05-03T01:09:22.592Z,13.29
2023-05-03T01:14:29.623Z,12.97
2023-05-03T01:19:32.389Z,13.12
2023-05-03T01:24:27.532Z,13.05
2023-05-03T01:29:22.061Z,12.92
2023-05-03T01:34:24.722Z,12.77
2023-05-03T01:39:22.317Z,12.84
2023-05-03T01:44:16.950Z,12.64
2023-05-03T01:49:11.689Z,12.80
2023-05-03T01:54:04.955Z,12.70
2023-05-03T01:58:58.160Z,12.52
2023-05-03T02:03:51.322Z,12.49
2023-05-03T02:08:46.102Z,12.25
2023-05-03T02:13:39.550Z,12.25
2023-05-03T02:18:33.770Z,12.32
2023-05-03T02:23:26.839Z,12.06
2023-05-03T02:28:21.987Z,12.22
2023-05-03T02:33:15.707Z,12.12
2023-05-03T02:38:08.917Z,12.05
2023-05-03T02:43:04.024Z,11.98
2023-05-03T02:47:59.608Z,11.85
2023-05-03T02:52:53.684Z,11.62
2023-05-03T02:57:47.002Z,11.49
2023-05-03T03:02:44.610Z,10.84
2023-05-03T03:07:40.355Z,11.32
2023-05-03T03:12:35.179Z,11.14
2023-05-03T03:17:30.721Z,11.13
2023-05-03T03:22:23.957Z,10.87
2023-05-03T03:27:18.551Z,11.12
2023-05-03T03:32:11.783Z,10.99
2023-05-03T03:37:07.088Z,11.07
2023-05-03T03:42:03.138Z,10.81
2023-05-03T03:47:00.837Z,11.15
2023-05-03T03:51:54.202Z,11.06
2023-05-03T03:56:47.453Z,10.90
2023-05-03T04:01:43.828Z,10.90
2023-05-03T04:06:39.374Z,10.97
2023-05-03T04:11:37.017Z,11.37
2023-05-03T04:16:33.434Z,11.39
2023-05-03T04:21:29.508Z,11.57
2023-05-03T04:26:31.955Z,11.61
2023-05-03T04:31:43.863Z,11.29
2023-05-03T04:36:40.241Z,11.85
2023-05-03T04:41:37.036Z,11.80
2023-05-03T04:46:33.063Z,12.09
2023-05-03T04:51:30.361Z,12.19
2023-05-03T04:56:26.881Z,12.29
2023-05-03T05:01:29.956Z,11.84
2023-05-03T05:06:27.533Z,12.37
2023-05-03T05:11:22.388Z,12.36
2023-05-03T05:16:15.892Z,12.57
2023-05-03T05:21:16.528Z,12.74
2023-05-03T05:26:10.160Z,12.89
2023-05-03T05:31:06.619Z,13.03
2023-05-03T05:36:00.591Z,12.96
2023-05-03T05:40:55.969Z,13.33
2023-05-03T05:45:50.447Z,13.46
2023-05-03T05:50:44.566Z,13.62
2023-05-03T05:55:39.824Z,13.76
2023-05-03T06:00:36.356Z,13.84
2023-05-03T06:05:29.622Z,13.87
2023-05-03T06:10:23.006Z,14.20
2023-05-03T06:15:19.292Z,13.62
2023-05-03T06:20:14.155Z,14.37
2023-05-03T06:25:09.791Z,13.81
2023-05-03T06:30:06.680Z,14.57
2023-05-03T06:35:02.397Z,14.80
2023-05-03T06:39:58.018Z,14.84
2023-05-03T06:44:51.339Z,14.48
2023-05-03T06:49:44.820Z,15.11
2023-05-03T06:54:48.648Z,15.12
2023-05-03T06:59:43.457Z,15.53
2023-05-03T07:04:37.943Z,15.69
2023-05-03T07:09:42.619Z,15.88
2023-05-03T07:14:43.756Z,15.44
2023-05-03T07:19:39.914Z,16.32
2023-05-03T07:24:41.265Z,16.20
2023-05-03T07:29:38.977Z,16.08
2023-05-03T07:34:32.935Z,16.33
2023-05-03T07:39:27.799Z,17.04
2023-05-03T07:44:20.935Z,17.44
2023-05-03T07:49:17.523Z,17.64
2023-05-03T07:54:11.152Z,16.75
2023-05-03T07:59:10.104Z,18.17
2023-05-03T08:04:05.084Z,18.22
2023-05-03T08:09:07.881Z,17.58
2023-05-03T08:14:04.319Z,18.81
2023-05-03T08:18:58.922Z,19.03
2023-05-03T08:23:52.254Z,20.07
2023-05-03T08:28:45.481Z,20.43
2023-05-03T08:33:39.136Z,20.85
2023-05-03T08:38:36.690Z,21.33
2023-05-03T08:43:30.769Z,22.04
2023-05-03T08:48:24.283Z,22.38
2023-05-03T08:53:17.574Z,22.36
2023-05-03T08:58:13.331Z,22.76
2023-05-03T09:03:08.603Z,22.42
2023-05-03T09:08:03.401Z,22.41
2023-05-03T09:13:01.278Z,22.38
2023-05-03T09:18:15.959Z,22.28
2023-05-03T09:23:10.174Z,22.23
2023-05-03T09:28:05.162Z,21.92
2023-05-03T09:32:58.409Z,22.15
2023-05-03T09:37:52.995Z,22.01
2023-05-03T09:43:06.878Z,21.89
2023-05-03T09:48:00.801Z,21.82
2023-05-03T09:52:57.720Z,21.74
2023-05-03T09:57:51.384Z,21.69
2023-05-03T10:02:48.231Z,21.41
2023-05-03T10:07:43.505Z,20.60
2023-05-03T10:12:59.985Z,21.27
2023-05-03T10:18:00.282Z,21.17
2023-05-03T10:23:22.357Z,21.38
2023-05-03T10:28:20.044Z,21.59
2023-05-03T10:33:35.026Z,21.80
2023-05-03T10:38:30.242Z,21.90
2023-05-03T10:43:52.147Z,22.01
2023-05-03T10:49:20.964Z,21.49
2023-05-03T10:54:14.504Z,21.68
2023-05-03T10:59:09.123Z,20.74
2023-05-03T11:04:09.466Z,20.94
2023-05-03T11:09:07.860Z,20.91
2023-05-03T11:14:04.525Z,21.78
2023-05-03T11:19:01.378Z,22.81
2023-05-03T11:23:57.206Z,23.89
2023-05-03T11:28:52.337Z,23.49
2023-05-03T11:33:47.982Z,24.22
2023-05-03T11:38:47.240Z,24.19
2023-05-03T11:43:42.721Z,24.07
2023-05-03T11:48:40.488Z,23.62
2023-05-03T11:53:34.846Z,22.25
2023-05-03T11:58:32.334Z,22.83
2023-05-03T12:03:31.369Z,22.59
2023-05-03T12:08:31.385Z,22.13
2023-05-03T12:13:37.078Z,22.30
2023-05-03T12:18:47.747Z,21.84
2023-05-03T12:23:41.787Z,22.08
2023-05-03T12:28:36.667Z,22.31
2023-05-03T12:33:31.642Z,21.58
2023-05-03T12:38:30.668Z,22.34
2023-05-03T12:43:24.852Z,23.04
2023-05-03T12:48:25.048Z,24.62
2023-05-03T12:53:19.334Z,26.81
2023-05-03T12:58:43.171Z,27.19
2023-05-03T13:03:32.792Z,27.44
2023-05-03T13:08:33.573Z,28.03
2023-05-03T13:13:28.751Z,27.43
2023-05-03T13:18:30.627Z,27.45
2023-05-03T13:23:27.997Z,26.92
2023-05-03T13:28:26.377Z,27.35
2023-05-03T13:33:20.617Z,28.88
2023-05-03T13:38:14.470Z,28.96
2023-05-03T13:43:13.108Z,29.46
2023-05-03T13:48:17.639Z,29.30
2023-05-03T13:53:16.920Z,30.08
2023-05-03T13:58:12.117Z,30.40
2023-05-03T14:03:07.320Z,30.02
2023-05-03T14:08:08.111Z,30.63
2023-05-03T14:13:11.561Z,30.78
2023-05-03T14:18:07.995Z,31.07
2023-05-03T14:23:07.695Z,31.03
2023-05-03T14:28:01.040Z,30.48
2023-05-03T14:32:54.254Z,29.23
2023-05-03T14:37:49.089Z,27.47
2023-05-03T14:42:48.974Z,26.03
2023-05-03T14:47:42.745Z,25.17
2023-05-03T14:52:36.956Z,24.59
2023-05-03T14:57:32.433Z,24.23
2023-05-03T15:02:25.934Z,23.14
2023-05-03T15:07:22.517Z,23.48
2023-05-03T15:12:16.088Z,22.97
2023-05-03T15:17:17.583Z,22.95
2023-05-03T15:22:20.099Z,22.50
2023-05-03T15:27:13.552Z,22.59
2023-05-03T15:32:07.125Z,22.44
2023-05-03T15:37:01.829Z,22.26
2023-05-03T15:41:55.076Z,21.74
2023-05-03T15:46:48.510Z,21.95
2023-05-03T15:51:42.014Z,21.78
2023-05-03T15:56:37.871Z,21.12
2023-05-03T16:01:31.312Z,21.47
2023-05-03T16:06:24.573Z,21.33
2023-05-03T16:11:17.822Z,21.20
2023-05-03T16:16:13.816Z,20.53
2023-05-03T16:21:07.334Z,20.24
2023-05-03T16:26:01.218Z,20.76
2023-05-03T16:30:54.401Z,20.67
2023-05-03T16:35:50.190Z,20.56
2023-05-03T16:40:43.661Z,20.16
2023-05-03T16:45:37.718Z,20.24
2023-05-03T16:50:33.915Z,19.87
2023-05-03T16:55:28.379Z,20.18
2023-05-03T17:00:22.002Z,20.00
2023-05-03T17:05:15.421Z,19.95
2023-05-03T17:10:10.124Z,19.85
2023-05-03T17:15:05.113Z,19.75
2023-05-03T17:19:58.326Z,19.60
2023-05-03T17:24:51.755Z,19.41
2023-05-03T17:29:45.429Z,19.51
2023-05-03T17:34:40.548Z,19.41
2023-05-03T17:39:34.448Z,19.33
2023-05-03T17:44:28.021Z,19.06
2023-05-03T17:49:21.444Z,18.85
2023-05-03T17:54:16.061Z,18.61
2023-05-03T17:59:09.334Z,18.72
2023-05-03T18:04:02.640Z,18.50
2023-05-03T18:08:58.188Z,18.58
2023-05-03T18:13:52.803Z,18.33
2023-05-03T18:18:46.061Z,18.45
2023-05-03T18:23:44.656Z,17.82
2023-05-03T18:28:45.337Z,18.19
2023-05-03T18:33:45.240Z,17.63
2023-05-03T18:38:45.304Z,17.10
2023-05-03T18:43:40.130Z,17.76
2023-05-03T18:48:33.376Z,17.61
2023-05-03T18:53:31.794Z,17.29
2023-05-03T18:58:25.361Z,17.10
2023-05-03T19:03:18.726Z,17.13
2023-05-03T19:08:12.275Z,17.08
2023-05-03T19:13:07.452Z,16.99
2023-05-03T19:18:01.065Z,16.93
2023-05-03T19:22:54.382Z,16.21
2023-05-03T19:27:47.508Z,16.62
2023-05-03T19:32:44.027Z,16.76
2023-05-03T19:37:37.581Z,16.67
2023-05-03T19:42:31.298Z,16.36
2023-05-03T19:47:27.086Z,15.89
2023-05-03T19:52:21.750Z,16.14
2023-05-03T19:57:14.941Z,15.46
2023-05-03T20:02:14.833Z,16.06
2023-05-03T20:07:08.240Z,15.71
2023-05-03T20:12:02.810Z,15.54
2023-05-03T20:16:57.073Z,15.80
2023-05-03T20:21:54.763Z,15.28
2023-05-03T20:26:47.922Z,15.55
2023-05-03T20:31:42.618Z,14.74
2023-05-03T20:36:35.824Z,15.70
2023-05-03T20:41:28.966Z,15.62
2023-05-03T20:46:24.964Z,15.61
2023-05-03T20:51:19.546Z,15.34
2023-05-03T20:56:12.648Z,15.16
2023-05-03T21:01:07.041Z,15.28
2023-05-03T21:06:00.180Z,15.34
2023-05-03T21:10:55.194Z,14.95
2023-05-03T21:15:49.864Z,15.35
2023-05-03T21:20:43.108Z,15.09
2023-05-03T21:25:36.291Z,14.67
2023-05-03T21:30:30.799Z,14.69
2023-05-03T21:35:24.118Z,14.20
2023-05-03T21:40:17.654Z,14.11
2023-05-03T21:45:12.329Z,14.16
2023-05-03T21:50:11.119Z,14.18
2023-05-03T21:55:04.439Z,14.13
2023-05-03T21:59:58.478Z,14.11
2023-05-03T22:04:52.010Z,14.09
2023-05-03T22:09:48.856Z,14.11
2023-05-03T22:14:42.257Z,14.19
2023-05-03T22:19:39.060Z,13.98
2023-05-03T22:24:32.372Z,13.37
2023-05-03T22:29:28.728Z,13.96
2023-05-03T22:34:22.047Z,13.85
2023-05-03T22:39:15.863Z,13.94
2023-05-03T22:44:08.931Z,14.14
2023-05-03T22:49:04.019Z,14.06
2023-05-03T22:53:57.386Z,14.21
2023-05-03T22:58:50.536Z,14.16
2023-05-03T23:03:43.870Z,13.91
2023-05-03T23:08:38.536Z,14.01
2023-05-03T23:13:31.857Z,13.74
2023-05-03T23:18:25.079Z,14.00
2023-05-03T23:23:18.380Z,14.01
2023-05-03T23:28:12.846Z,13.81
2023-05-03T23:33:06.507Z,13.90
2023-05-03T23:38:00.213Z,14.03
2023-05-03T23:42:53.465Z,14.00
2023-05-03T23:47:48.023Z,13.84
2023-05-03T23:52:42.500Z,14.15
2023-05-03T23:57:36.107Z,14.18
